sensor_id;sensor_type;location;lat;lon;timestamp;temperature;humidity
23703;DHT22;12030;50.376;8.762;2023-02-01T00:02:04;5.40;99.90
23703;DHT22;12030;50.376;8.762;2023-02-01T00:04:29;5.40;99.90
23703;DHT22;12030;50.376;8.762;2023-02-01T00:06:55;5.40;99.90
23703;DHT22;12030;50.376;8.762;2023-02-01T00:09:21;5.40;99.90
23703;DHT22;12030;50.376;8.762;2023-02-01T00:11:47;5.40;99.90
23703;DHT22;12030;50.376;8.762;2023-02-01T00:14:12;5.40;99.90
23703;DHT22;12030;50.376;8.762;2023-02-01T00:16:39;5.40;99.90
23703;DHT22;12030;50.376;8.762;2023-02-01T00:19:07;5.40;99.90
23703;DHT22;12030;50.376;8.762;2023-02-01T00:21:33;5.50;99.90
23703;DHT22;12030;50.376;8.762;2023-02-01T00:23:59;5.50;99.90
23703;DHT22;12030;50.376;8.762;2023-02-01T00:26:37;5.50;99.90
23703;DHT22;12030;50.376;8.762;2023-02-01T00:29:06;5.60;99.90
23703;DHT22;12030;50.376;8.762;2023-02-01T00:31:32;5.60;99.90
23703;DHT22;12030;50.376;8.762;2023-02-01T00:33:58;5.60;99.90
23703;DHT22;12030;50.376;8.762;2023-02-01T00:36:23;5.60;99.90
23703;DHT22;12030;50.376;8.762;2023-02-01T00:38:49;5.60;99.90
23703;DHT22;12030;50.376;8.762;2023-02-01T00:41:17;5.60;99.90
23703;DHT22;12030;50.376;8.762;2023-02-01T00:43:43;5.60;99.90
23703;DHT22;12030;50.376;8.762;2023-02-01T00:46:11;5.60;99.90
23703;DHT22;12030;50.376;8.762;2023-02-01T00:48:38;5.70;99.90
23703;DHT22;12030;50.376;8.762;2023-02-01T00:51:07;5.70;99.90
23703;DHT22;12030;50.376;8.762;2023-02-01T00:53:33;5.70;99.90
23703;DHT22;12030;50.376;8.762;2023-02-01T00:55:59;5.70;99.90
23703;DHT22;12030;50.376;8.762;2023-02-01T00:58:25;5.70;99.90
23703;DHT22;12030;50.376;8.762;2023-02-01T01:01:12;5.70;99.90
23703;DHT22;12030;50.376;8.762;2023-02-01T01:03:40;5.70;99.90
23703;DHT22;12030;50.376;8.762;2023-02-01T01:06:12;5.70;99.90
23703;DHT22;12030;50.376;8.762;2023-02-01T01:08:39;5.70;99.90
23703;DHT22;12030;50.376;8.762;2023-02-01T01:11:07;5.70;99.90
23703;DHT22;12030;50.376;8.762;2023-02-01T01:13:33;5.70;99.90
23703;DHT22;12030;50.376;8.762;2023-02-01T01:16:03;5.70;99.90
23703;DHT22;12030;50.376;8.762;2023-02-01T01:18:30;5.70;99.90
23703;DHT22;12030;50.376;8.762;2023-02-01T01:20:56;5.70;99.90
23703;DHT22;12030;50.376;8.762;2023-02-01T01:23:21;5.80;99.90
23703;DHT22;12030;50.376;8.762;2023-02-01T01:25:47;5.70;99.90
23703;DHT22;12030;50.376;8.762;2023-02-01T01:28:12;5.70;99.90
23703;DHT22;12030;50.376;8.762;2023-02-01T01:30:38;5.80;99.90
23703;DHT22;12030;50.376;8.762;2023-02-01T01:33:03;5.80;99.90
23703;DHT22;12030;50.376;8.762;2023-02-01T01:35:30;5.80;99.90
23703;DHT22;12030;50.376;8.762;2023-02-01T01:37:57;5.80;99.90
23703;DHT22;12030;50.376;8.762;2023-02-01T01:40:23;5.80;99.90
23703;DHT22;12030;50.376;8.762;2023-02-01T01:42:48;5.80;99.90
23703;DHT22;12030;50.376;8.762;2023-02-01T01:47:51;5.90;99.90
23703;DHT22;12030;50.376;8.762;2023-02-01T01:50:24;5.90;99.90
23703;DHT22;12030;50.376;8.762;2023-02-01T01:52:52;5.90;99.90
23703;DHT22;12030;50.376;8.762;2023-02-01T01:55:21;5.90;99.90
23703;DHT22;12030;50.376;8.762;2023-02-01T01:57:57;5.90;99.90
23703;DHT22;12030;50.376;8.762;2023-02-01T02:00:25;6.00;99.90
23703;DHT22;12030;50.376;8.762;2023-02-01T02:02:57;5.90;99.90
23703;DHT22;12030;50.376;8.762;2023-02-01T02:05:23;5.90;99.90
23703;DHT22;12030;50.376;8.762;2023-02-01T02:07:51;5.90;99.90
23703;DHT22;12030;50.376;8.762;2023-02-01T02:10:18;6.00;99.90
23703;DHT22;12030;50.376;8.762;2023-02-01T02:12:45;5.90;99.90
23703;DHT22;12030;50.376;8.762;2023-02-01T02:15:14;5.90;99.90
23703;DHT22;12030;50.376;8.762;2023-02-01T02:17:58;5.90;99.90
23703;DHT22;12030;50.376;8.762;2023-02-01T02:20:51;5.90;99.90
23703;DHT22;12030;50.376;8.762;2023-02-01T02:37:20;5.90;99.90
23703;DHT22;12030;50.376;8.762;2023-02-01T02:42:20;5.90;99.90
23703;DHT22;12030;50.376;8.762;2023-02-01T02:45:19;5.90;99.90
23703;DHT22;12030;50.376;8.762;2023-02-01T02:48:20;5.90;99.90
23703;DHT22;12030;50.376;8.762;2023-02-01T02:51:20;5.90;99.90
23703;DHT22;12030;50.376;8.762;2023-02-01T02:54:14;5.90;99.90
23703;DHT22;12030;50.376;8.762;2023-02-01T02:57:00;5.90;99.90
23703;DHT22;12030;50.376;8.762;2023-02-01T02:59:47;5.80;99.90
23703;DHT22;12030;50.376;8.762;2023-02-01T03:02:33;5.90;99.90
23703;DHT22;12030;50.376;8.762;2023-02-01T03:05:17;5.90;99.90
23703;DHT22;12030;50.376;8.762;2023-02-01T03:07:54;5.90;99.90
23703;DHT22;12030;50.376;8.762;2023-02-01T03:10:24;5.90;99.90
23703;DHT22;12030;50.376;8.762;2023-02-01T03:12:52;5.80;99.90
23703;DHT22;12030;50.376;8.762;2023-02-01T03:15:44;5.90;99.90
23703;DHT22;12030;50.376;8.762;2023-02-01T03:18:19;5.80;99.90
23703;DHT22;12030;50.376;8.762;2023-02-01T03:20:49;5.80;99.90
23703;DHT22;12030;50.376;8.762;2023-02-01T03:23:20;5.90;99.90
23703;DHT22;12030;50.376;8.762;2023-02-01T03:25:48;5.90;99.90
23703;DHT22;12030;50.376;8.762;2023-02-01T03:28:17;5.90;99.90
23703;DHT22;12030;50.376;8.762;2023-02-01T03:30:48;5.90;99.90
23703;DHT22;12030;50.376;8.762;2023-02-01T03:33:20;5.90;99.90
23703;DHT22;12030;50.376;8.762;2023-02-01T03:38:31;6.00;99.90
23703;DHT22;12030;50.376;8.762;2023-02-01T03:41:02;6.00;99.90
23703;DHT22;12030;50.376;8.762;2023-02-01T03:43:37;6.00;99.90
23703;DHT22;12030;50.376;8.762;2023-02-01T03:46:09;6.00;99.90
23703;DHT22;12030;50.376;8.762;2023-02-01T03:48:37;6.10;99.90
23703;DHT22;12030;50.376;8.762;2023-02-01T03:51:05;6.10;99.90
23703;DHT22;12030;50.376;8.762;2023-02-01T03:53:34;6.10;99.90
23703;DHT22;12030;50.376;8.762;2023-02-01T03:56:02;6.10;99.90
23703;DHT22;12030;50.376;8.762;2023-02-01T03:58:28;6.10;99.90
23703;DHT22;12030;50.376;8.762;2023-02-01T04:00:56;6.20;99.90
23703;DHT22;12030;50.376;8.762;2023-02-01T04:03:23;6.10;99.90
23703;DHT22;12030;50.376;8.762;2023-02-01T04:05:49;6.10;99.90
23703;DHT22;12030;50.376;8.762;2023-02-01T04:08:15;6.10;99.90
23703;DHT22;12030;50.376;8.762;2023-02-01T04:10:41;6.10;99.90
23703;DHT22;12030;50.376;8.762;2023-02-01T04:13:06;6.00;99.90
23703;DHT22;12030;50.376;8.762;2023-02-01T04:15:32;6.00;99.90
23703;DHT22;12030;50.376;8.762;2023-02-01T04:17:59;6.10;99.90
23703;DHT22;12030;50.376;8.762;2023-02-01T04:20:25;6.00;99.90
23703;DHT22;12030;50.376;8.762;2023-02-01T04:22:51;6.10;99.90
23703;DHT22;12030;50.376;8.762;2023-02-01T04:25:16;6.10;99.90
23703;DHT22;12030;50.376;8.762;2023-02-01T04:27:42;6.00;99.90
23703;DHT22;12030;50.376;8.762;2023-02-01T04:30:08;6.10;99.90
23703;DHT22;12030;50.376;8.762;2023-02-01T04:32:38;6.10;99.90
23703;DHT22;12030;50.376;8.762;2023-02-01T04:35:04;6.00;99.90
23703;DHT22;12030;50.376;8.762;2023-02-01T04:37:30;6.00;99.90
23703;DHT22;12030;50.376;8.762;2023-02-01T04:39:56;6.00;99.90
23703;DHT22;12030;50.376;8.762;2023-02-01T04:42:21;6.00;99.90
23703;DHT22;12030;50.376;8.762;2023-02-01T04:44:47;6.00;99.90
23703;DHT22;12030;50.376;8.762;2023-02-01T04:47:13;6.00;99.90
23703;DHT22;12030;50.376;8.762;2023-02-01T04:49:39;5.90;99.90
23703;DHT22;12030;50.376;8.762;2023-02-01T04:52:05;5.90;99.90
23703;DHT22;12030;50.376;8.762;2023-02-01T04:54:30;5.90;99.90
23703;DHT22;12030;50.376;8.762;2023-02-01T04:56:56;5.90;99.90
23703;DHT22;12030;50.376;8.762;2023-02-01T04:59:21;6.00;99.90
23703;DHT22;12030;50.376;8.762;2023-02-01T05:01:47;5.90;99.90
23703;DHT22;12030;50.376;8.762;2023-02-01T05:04:12;5.90;99.90
23703;DHT22;12030;50.376;8.762;2023-02-01T05:06:38;5.80;99.90
23703;DHT22;12030;50.376;8.762;2023-02-01T05:09:03;5.90;99.90
23703;DHT22;12030;50.376;8.762;2023-02-01T05:11:29;5.90;99.90
23703;DHT22;12030;50.376;8.762;2023-02-01T05:14:13;5.90;99.90
23703;DHT22;12030;50.376;8.762;2023-02-01T05:16:38;5.90;99.90
23703;DHT22;12030;50.376;8.762;2023-02-01T05:19:04;5.80;99.90
23703;DHT22;12030;50.376;8.762;2023-02-01T05:21:29;5.80;99.90
23703;DHT22;12030;50.376;8.762;2023-02-01T05:23:55;5.90;99.90
23703;DHT22;12030;50.376;8.762;2023-02-01T05:26:42;5.90;99.90
23703;DHT22;12030;50.376;8.762;2023-02-01T05:29:09;5.80;99.90
23703;DHT22;12030;50.376;8.762;2023-02-01T05:31:34;5.80;99.90
23703;DHT22;12030;50.376;8.762;2023-02-01T05:34:00;5.70;99.90
23703;DHT22;12030;50.376;8.762;2023-02-01T05:36:26;5.70;99.90
23703;DHT22;12030;50.376;8.762;2023-02-01T05:38:51;5.60;99.90
23703;DHT22;12030;50.376;8.762;2023-02-01T05:41:17;5.60;99.90
23703;DHT22;12030;50.376;8.762;2023-02-01T05:43:42;5.50;99.90
23703;DHT22;12030;50.376;8.762;2023-02-01T05:46:08;5.50;99.90
23703;DHT22;12030;50.376;8.762;2023-02-01T05:48:38;5.50;99.90
23703;DHT22;12030;50.376;8.762;2023-02-01T05:51:03;5.50;99.90
23703;DHT22;12030;50.376;8.762;2023-02-01T05:53:29;5.60;99.90
23703;DHT22;12030;50.376;8.762;2023-02-01T05:55:54;5.60;99.90
23703;DHT22;12030;50.376;8.762;2023-02-01T05:58:20;5.70;99.90
23703;DHT22;12030;50.376;8.762;2023-02-01T06:00:45;5.70;99.90
23703;DHT22;12030;50.376;8.762;2023-02-01T06:03:11;5.70;99.90
23703;DHT22;12030;50.376;8.762;2023-02-01T06:05:36;5.80;99.90
23703;DHT22;12030;50.376;8.762;2023-02-01T06:08:02;5.80;99.90
23703;DHT22;12030;50.376;8.762;2023-02-01T06:10:28;5.80;99.90
23703;DHT22;12030;50.376;8.762;2023-02-01T06:12:53;5.80;99.90
23703;DHT22;12030;50.376;8.762;2023-02-01T06:15:19;5.80;99.90
23703;DHT22;12030;50.376;8.762;2023-02-01T06:17:45;5.80;99.90
23703;DHT22;12030;50.376;8.762;2023-02-01T06:20:12;5.80;99.90
23703;DHT22;12030;50.376;8.762;2023-02-01T06:22:39;5.80;99.90
23703;DHT22;12030;50.376;8.762;2023-02-01T06:25:06;5.90;99.90
23703;DHT22;12030;50.376;8.762;2023-02-01T06:27:32;5.90;99.90
23703;DHT22;12030;50.376;8.762;2023-02-01T06:29:58;6.00;99.90
23703;DHT22;12030;50.376;8.762;2023-02-01T06:32:24;6.00;99.90
23703;DHT22;12030;50.376;8.762;2023-02-01T06:34:50;6.00;99.90
23703;DHT22;12030;50.376;8.762;2023-02-01T06:37:18;6.00;99.90
23703;DHT22;12030;50.376;8.762;2023-02-01T06:39:43;6.00;99.90
23703;DHT22;12030;50.376;8.762;2023-02-01T06:42:09;5.90;99.90
23703;DHT22;12030;50.376;8.762;2023-02-01T06:44:34;5.90;99.90
23703;DHT22;12030;50.376;8.762;2023-02-01T06:47:00;5.90;99.90
23703;DHT22;12030;50.376;8.762;2023-02-01T06:49:25;5.90;99.90
23703;DHT22;12030;50.376;8.762;2023-02-01T06:51:51;5.90;99.90
23703;DHT22;12030;50.376;8.762;2023-02-01T06:54:17;5.80;99.90
23703;DHT22;12030;50.376;8.762;2023-02-01T06:56:42;5.80;99.90
23703;DHT22;12030;50.376;8.762;2023-02-01T06:59:08;5.80;99.90
23703;DHT22;12030;50.376;8.762;2023-02-01T07:01:34;5.80;99.90
23703;DHT22;12030;50.376;8.762;2023-02-01T07:04:00;5.70;99.90
23703;DHT22;12030;50.376;8.762;2023-02-01T07:06:26;5.70;99.90
23703;DHT22;12030;50.376;8.762;2023-02-01T07:08:51;5.70;99.90
23703;DHT22;12030;50.376;8.762;2023-02-01T07:11:18;5.80;99.90
23703;DHT22;12030;50.376;8.762;2023-02-01T07:13:44;5.80;99.90
23703;DHT22;12030;50.376;8.762;2023-02-01T07:16:15;5.80;99.90
23703;DHT22;12030;50.376;8.762;2023-02-01T07:18:41;5.90;99.90
23703;DHT22;12030;50.376;8.762;2023-02-01T07:21:07;5.90;99.90
23703;DHT22;12030;50.376;8.762;2023-02-01T07:23:32;6.00;99.90
23703;DHT22;12030;50.376;8.762;2023-02-01T07:26:00;6.00;99.90
23703;DHT22;12030;50.376;8.762;2023-02-01T07:28:31;6.10;99.90
23703;DHT22;12030;50.376;8.762;2023-02-01T07:31:09;6.10;99.90
23703;DHT22;12030;50.376;8.762;2023-02-01T07:33:35;6.10;99.90
23703;DHT22;12030;50.376;8.762;2023-02-01T07:36:02;6.20;99.90
23703;DHT22;12030;50.376;8.762;2023-02-01T07:38:29;6.20;99.90
23703;DHT22;12030;50.376;8.762;2023-02-01T07:40:59;6.20;99.90
23703;DHT22;12030;50.376;8.762;2023-02-01T07:43:25;6.20;99.90
23703;DHT22;12030;50.376;8.762;2023-02-01T07:45:51;6.30;99.90
23703;DHT22;12030;50.376;8.762;2023-02-01T07:48:17;6.30;99.90
23703;DHT22;12030;50.376;8.762;2023-02-01T07:50:43;6.30;99.90
23703;DHT22;12030;50.376;8.762;2023-02-01T07:53:09;6.30;99.90
23703;DHT22;12030;50.376;8.762;2023-02-01T07:55:37;6.30;99.90
23703;DHT22;12030;50.376;8.762;2023-02-01T07:58:03;6.30;99.90
23703;DHT22;12030;50.376;8.762;2023-02-01T08:00:28;6.40;99.90
23703;DHT22;12030;50.376;8.762;2023-02-01T08:03:12;6.40;99.90
23703;DHT22;12030;50.376;8.762;2023-02-01T08:05:38;6.40;99.90
23703;DHT22;12030;50.376;8.762;2023-02-01T08:08:04;6.40;99.90
23703;DHT22;12030;50.376;8.762;2023-02-01T08:10:30;6.50;99.90
23703;DHT22;12030;50.376;8.762;2023-02-01T08:12:58;6.50;99.90
23703;DHT22;12030;50.376;8.762;2023-02-01T08:15:25;6.50;99.90
23703;DHT22;12030;50.376;8.762;2023-02-01T08:17:51;6.50;99.90
23703;DHT22;12030;50.376;8.762;2023-02-01T08:20:18;6.60;99.90
23703;DHT22;12030;50.376;8.762;2023-02-01T08:22:44;6.50;99.90
23703;DHT22;12030;50.376;8.762;2023-02-01T08:25:10;6.60;99.90
23703;DHT22;12030;50.376;8.762;2023-02-01T08:27:36;6.60;99.90
23703;DHT22;12030;50.376;8.762;2023-02-01T08:30:03;6.60;99.90
23703;DHT22;12030;50.376;8.762;2023-02-01T08:32:28;6.60;99.90
23703;DHT22;12030;50.376;8.762;2023-02-01T08:34:54;6.50;99.90
23703;DHT22;12030;50.376;8.762;2023-02-01T08:37:19;6.50;99.90
23703;DHT22;12030;50.376;8.762;2023-02-01T08:39:45;6.60;99.90
23703;DHT22;12030;50.376;8.762;2023-02-01T08:42:11;6.60;99.90
23703;DHT22;12030;50.376;8.762;2023-02-01T08:44:56;6.60;99.90
23703;DHT22;12030;50.376;8.762;2023-02-01T08:47:22;6.70;99.90
23703;DHT22;12030;50.376;8.762;2023-02-01T08:49:47;6.70;99.90
23703;DHT22;12030;50.376;8.762;2023-02-01T08:52:13;6.70;99.90
23703;DHT22;12030;50.376;8.762;2023-02-01T08:54:39;6.70;99.90
23703;DHT22;12030;50.376;8.762;2023-02-01T08:57:06;6.70;99.90
23703;DHT22;12030;50.376;8.762;2023-02-01T08:59:32;6.70;99.90
23703;DHT22;12030;50.376;8.762;2023-02-01T09:01:57;6.70;99.90
23703;DHT22;12030;50.376;8.762;2023-02-01T09:04:23;6.70;99.90
23703;DHT22;12030;50.376;8.762;2023-02-01T09:06:48;6.70;99.90
23703;DHT22;12030;50.376;8.762;2023-02-01T09:09:14;6.70;99.90
23703;DHT22;12030;50.376;8.762;2023-02-01T09:11:39;6.70;99.90
23703;DHT22;12030;50.376;8.762;2023-02-01T09:14:05;6.70;99.90
23703;DHT22;12030;50.376;8.762;2023-02-01T09:16:31;6.70;99.90
23703;DHT22;12030;50.376;8.762;2023-02-01T09:18:57;6.60;99.90
23703;DHT22;12030;50.376;8.762;2023-02-01T09:21:22;6.60;99.90
23703;DHT22;12030;50.376;8.762;2023-02-01T09:23:50;6.60;99.90
23703;DHT22;12030;50.376;8.762;2023-02-01T09:26:15;6.60;99.90
23703;DHT22;12030;50.376;8.762;2023-02-01T09:28:41;6.60;99.90
23703;DHT22;12030;50.376;8.762;2023-02-01T09:31:06;6.70;99.90
23703;DHT22;12030;50.376;8.762;2023-02-01T09:33:32;6.70;99.90
23703;DHT22;12030;50.376;8.762;2023-02-01T09:36:00;6.70;99.90
23703;DHT22;12030;50.376;8.762;2023-02-01T09:38:26;6.70;99.90
23703;DHT22;12030;50.376;8.762;2023-02-01T09:40:53;6.70;99.90
23703;DHT22;12030;50.376;8.762;2023-02-01T09:43:35;6.70;99.90
23703;DHT22;12030;50.376;8.762;2023-02-01T09:48:42;6.70;99.90
23703;DHT22;12030;50.376;8.762;2023-02-01T09:51:21;6.80;99.90
23703;DHT22;12030;50.376;8.762;2023-02-01T09:54:00;6.80;99.90
23703;DHT22;12030;50.376;8.762;2023-02-01T09:56:41;6.80;99.90
23703;DHT22;12030;50.376;8.762;2023-02-01T10:01:40;6.80;99.90
23703;DHT22;12030;50.376;8.762;2023-02-01T10:04:11;6.90;99.90
23703;DHT22;12030;50.376;8.762;2023-02-01T10:20:28;7.10;99.90
23703;DHT22;12030;50.376;8.762;2023-02-01T10:23:08;7.10;99.90
23703;DHT22;12030;50.376;8.762;2023-02-01T10:25:53;7.20;99.90
23703;DHT22;12030;50.376;8.762;2023-02-01T10:28:20;7.20;99.90
23703;DHT22;12030;50.376;8.762;2023-02-01T10:30:48;7.20;99.90
23703;DHT22;12030;50.376;8.762;2023-02-01T10:33:21;7.20;99.90
23703;DHT22;12030;50.376;8.762;2023-02-01T10:35:53;7.20;99.90
23703;DHT22;12030;50.376;8.762;2023-02-01T10:38:25;7.20;99.90
23703;DHT22;12030;50.376;8.762;2023-02-01T10:40:53;7.20;99.90
23703;DHT22;12030;50.376;8.762;2023-02-01T10:43:20;7.20;99.90
23703;DHT22;12030;50.376;8.762;2023-02-01T10:45:46;7.20;99.90
23703;DHT22;12030;50.376;8.762;2023-02-01T10:48:11;7.20;99.90
23703;DHT22;12030;50.376;8.762;2023-02-01T10:53:22;7.20;99.90
23703;DHT22;12030;50.376;8.762;2023-02-01T10:55:51;7.20;99.90
23703;DHT22;12030;50.376;8.762;2023-02-01T10:58:42;7.20;99.90
23703;DHT22;12030;50.376;8.762;2023-02-01T11:01:21;7.30;99.90
23703;DHT22;12030;50.376;8.762;2023-02-01T11:03:58;7.30;99.90
23703;DHT22;12030;50.376;8.762;2023-02-01T11:06:51;7.30;99.90
23703;DHT22;12030;50.376;8.762;2023-02-01T11:09:22;7.30;99.90
23703;DHT22;12030;50.376;8.762;2023-02-01T11:14:20;7.30;99.90
23703;DHT22;12030;50.376;8.762;2023-02-01T11:16:59;7.30;99.90
23703;DHT22;12030;50.376;8.762;2023-02-01T11:19:26;7.40;99.90
23703;DHT22;12030;50.376;8.762;2023-02-01T11:21:54;7.40;99.90
23703;DHT22;12030;50.376;8.762;2023-02-01T11:24:29;7.40;99.90
23703;DHT22;12030;50.376;8.762;2023-02-01T11:26:56;7.40;99.90
23703;DHT22;12030;50.376;8.762;2023-02-01T11:29:23;7.40;99.90
23703;DHT22;12030;50.376;8.762;2023-02-01T11:31:56;7.40;99.90
23703;DHT22;12030;50.376;8.762;2023-02-01T11:34:30;7.30;99.90
23703;DHT22;12030;50.376;8.762;2023-02-01T11:37:00;7.30;99.90
23703;DHT22;12030;50.376;8.762;2023-02-01T11:39:33;7.30;99.90
23703;DHT22;12030;50.376;8.762;2023-02-01T11:42:14;7.30;99.90
23703;DHT22;12030;50.376;8.762;2023-02-01T11:44:42;7.40;99.90
23703;DHT22;12030;50.376;8.762;2023-02-01T11:47:39;7.40;99.90
23703;DHT22;12030;50.376;8.762;2023-02-01T11:50:16;7.50;99.90
23703;DHT22;12030;50.376;8.762;2023-02-01T11:53:09;7.50;99.90
23703;DHT22;12030;50.376;8.762;2023-02-01T11:55:52;7.50;99.90
23703;DHT22;12030;50.376;8.762;2023-02-01T12:11:43;7.60;99.90
23703;DHT22;12030;50.376;8.762;2023-02-01T12:14:35;7.70;99.90
23703;DHT22;12030;50.376;8.762;2023-02-01T12:17:38;7.70;99.90
23703;DHT22;12030;50.376;8.762;2023-02-01T12:23:16;8.00;99.90
23703;DHT22;12030;50.376;8.762;2023-02-01T12:28:30;8.10;99.90
23703;DHT22;12030;50.376;8.762;2023-02-01T12:31:36;8.20;99.90
23703;DHT22;12030;50.376;8.762;2023-02-01T12:37:12;8.40;99.90
23703;DHT22;12030;50.376;8.762;2023-02-01T12:39:59;8.70;99.90
23703;DHT22;12030;50.376;8.762;2023-02-01T12:45:06;8.30;99.90
23703;DHT22;12030;50.376;8.762;2023-02-01T12:47:44;8.30;99.90
23703;DHT22;12030;50.376;8.762;2023-02-01T12:50:26;8.20;99.90
23703;DHT22;12030;50.376;8.762;2023-02-01T12:52:56;8.30;99.90
23703;DHT22;12030;50.376;8.762;2023-02-01T12:55:45;8.30;99.90
23703;DHT22;12030;50.376;8.762;2023-02-01T12:58:24;8.40;99.90
23703;DHT22;12030;50.376;8.762;2023-02-01T13:01:00;8.30;99.90
23703;DHT22;12030;50.376;8.762;2023-02-01T13:06:27;8.40;99.90
23703;DHT22;12030;50.376;8.762;2023-02-01T13:09:00;8.40;99.90
23703;DHT22;12030;50.376;8.762;2023-02-01T13:11:35;8.30;99.90
23703;DHT22;12030;50.376;8.762;2023-02-01T13:14:38;8.30;99.90
23703;DHT22;12030;50.376;8.762;2023-02-01T13:17:15;8.40;99.90
23703;DHT22;12030;50.376;8.762;2023-02-01T13:20:05;8.40;99.90
23703;DHT22;12030;50.376;8.762;2023-02-01T13:22:39;8.30;99.90
23703;DHT22;12030;50.376;8.762;2023-02-01T13:27:50;8.50;99.90
23703;DHT22;12030;50.376;8.762;2023-02-01T13:30:30;8.50;99.90
23703;DHT22;12030;50.376;8.762;2023-02-01T13:33:15;8.50;99.90
23703;DHT22;12030;50.376;8.762;2023-02-01T13:36:03;8.50;99.90
23703;DHT22;12030;50.376;8.762;2023-02-01T13:38:53;8.50;99.90
23703;DHT22;12030;50.376;8.762;2023-02-01T13:43:57;8.60;99.90
23703;DHT22;12030;50.376;8.762;2023-02-01T13:46:23;8.60;99.90
23703;DHT22;12030;50.376;8.762;2023-02-01T13:48:51;8.70;99.90
23703;DHT22;12030;50.376;8.762;2023-02-01T13:51:37;8.40;99.90
23703;DHT22;12030;50.376;8.762;2023-02-01T13:54:06;8.80;99.90
23703;DHT22;12030;50.376;8.762;2023-02-01T13:56:41;8.80;99.90
23703;DHT22;12030;50.376;8.762;2023-02-01T14:05:01;8.80;99.90
23703;DHT22;12030;50.376;8.762;2023-02-01T14:07:27;8.80;99.90
23703;DHT22;12030;50.376;8.762;2023-02-01T14:09:53;8.80;99.90
23703;DHT22;12030;50.376;8.762;2023-02-01T14:12:45;8.80;99.90
23703;DHT22;12030;50.376;8.762;2023-02-01T14:15:21;8.80;99.90
23703;DHT22;12030;50.376;8.762;2023-02-01T14:17:48;8.60;99.90
23703;DHT22;12030;50.376;8.762;2023-02-01T14:20:40;8.60;99.90
23703;DHT22;12030;50.376;8.762;2023-02-01T14:23:15;8.50;99.90
23703;DHT22;12030;50.376;8.762;2023-02-01T14:25:42;8.50;99.90
23703;DHT22;12030;50.376;8.762;2023-02-01T14:28:19;8.50;99.90
23703;DHT22;12030;50.376;8.762;2023-02-01T14:30:48;8.50;99.90
23703;DHT22;12030;50.376;8.762;2023-02-01T14:33:22;8.40;99.90
23703;DHT22;12030;50.376;8.762;2023-02-01T14:36:03;8.50;99.90
23703;DHT22;12030;50.376;8.762;2023-02-01T14:38:31;8.50;99.90
23703;DHT22;12030;50.376;8.762;2023-02-01T14:41:11;8.50;99.90
23703;DHT22;12030;50.376;8.762;2023-02-01T14:44:13;8.50;99.90
23703;DHT22;12030;50.376;8.762;2023-02-01T14:49:46;8.40;99.90
23703;DHT22;12030;50.376;8.762;2023-02-01T14:52:16;8.40;99.90
23703;DHT22;12030;50.376;8.762;2023-02-01T14:54:43;8.40;99.90
23703;DHT22;12030;50.376;8.762;2023-02-01T14:57:16;8.30;99.90
23703;DHT22;12030;50.376;8.762;2023-02-01T14:59:45;8.20;99.90
23703;DHT22;12030;50.376;8.762;2023-02-01T15:02:23;8.10;99.90
23703;DHT22;12030;50.376;8.762;2023-02-01T15:04:55;8.10;99.90
23703;DHT22;12030;50.376;8.762;2023-02-01T15:07:21;8.00;99.90
23703;DHT22;12030;50.376;8.762;2023-02-01T15:09:48;7.90;99.90
23703;DHT22;12030;50.376;8.762;2023-02-01T15:12:22;7.90;99.90
23703;DHT22;12030;50.376;8.762;2023-02-01T15:15:19;7.90;99.90
23703;DHT22;12030;50.376;8.762;2023-02-01T15:17:56;7.80;99.90
23703;DHT22;12030;50.376;8.762;2023-02-01T15:20:30;7.80;99.90
23703;DHT22;12030;50.376;8.762;2023-02-01T15:23:00;7.70;99.90
23703;DHT22;12030;50.376;8.762;2023-02-01T15:25:28;7.70;99.90
23703;DHT22;12030;50.376;8.762;2023-02-01T15:27:54;7.60;99.90
23703;DHT22;12030;50.376;8.762;2023-02-01T15:32:46;7.40;99.90
23703;DHT22;12030;50.376;8.762;2023-02-01T15:35:35;7.40;99.90
23703;DHT22;12030;50.376;8.762;2023-02-01T15:38:21;7.40;99.90
23703;DHT22;12030;50.376;8.762;2023-02-01T15:40:54;7.30;99.90
23703;DHT22;12030;50.376;8.762;2023-02-01T15:43:21;7.30;99.90
23703;DHT22;12030;50.376;8.762;2023-02-01T15:45:48;7.20;99.90
23703;DHT22;12030;50.376;8.762;2023-02-01T15:48:22;7.20;99.90
23703;DHT22;12030;50.376;8.762;2023-02-01T15:50:48;7.20;99.90
23703;DHT22;12030;50.376;8.762;2023-02-01T15:53:19;7.10;99.90
23703;DHT22;12030;50.376;8.762;2023-02-01T15:55:45;7.10;99.90
23703;DHT22;12030;50.376;8.762;2023-02-01T15:58:19;7.10;99.90
23703;DHT22;12030;50.376;8.762;2023-02-01T16:00:49;7.00;99.90
23703;DHT22;12030;50.376;8.762;2023-02-01T16:06:11;6.90;99.90
23703;DHT22;12030;50.376;8.762;2023-02-01T16:08:49;6.90;99.90
23703;DHT22;12030;50.376;8.762;2023-02-01T16:11:25;6.90;99.90
23703;DHT22;12030;50.376;8.762;2023-02-01T16:13:52;6.80;99.90
23703;DHT22;12030;50.376;8.762;2023-02-01T16:16:18;6.80;99.90
23703;DHT22;12030;50.376;8.762;2023-02-01T16:18:44;6.80;99.90
23703;DHT22;12030;50.376;8.762;2023-02-01T16:21:10;6.80;99.90
23703;DHT22;12030;50.376;8.762;2023-02-01T16:23:37;6.80;99.90
23703;DHT22;12030;50.376;8.762;2023-02-01T16:26:03;6.80;99.90
23703;DHT22;12030;50.376;8.762;2023-02-01T16:28:29;6.80;99.90
23703;DHT22;12030;50.376;8.762;2023-02-01T16:30:55;6.90;99.90
23703;DHT22;12030;50.376;8.762;2023-02-01T16:33:21;6.90;99.90
23703;DHT22;12030;50.376;8.762;2023-02-01T16:35:48;6.90;99.90
23703;DHT22;12030;50.376;8.762;2023-02-01T16:38:16;6.90;99.90
23703;DHT22;12030;50.376;8.762;2023-02-01T16:40:44;6.80;99.90
23703;DHT22;12030;50.376;8.762;2023-02-01T16:45:39;6.80;99.90
23703;DHT22;12030;50.376;8.762;2023-02-01T16:48:06;6.80;99.90
23703;DHT22;12030;50.376;8.762;2023-02-01T16:50:32;6.80;99.90
23703;DHT22;12030;50.376;8.762;2023-02-01T16:52:58;6.80;99.90
23703;DHT22;12030;50.376;8.762;2023-02-01T16:55:23;6.80;99.90
23703;DHT22;12030;50.376;8.762;2023-02-01T16:57:50;6.80;99.90
23703;DHT22;12030;50.376;8.762;2023-02-01T17:00:16;6.80;99.90
23703;DHT22;12030;50.376;8.762;2023-02-01T17:02:42;6.80;99.90
23703;DHT22;12030;50.376;8.762;2023-02-01T17:05:09;6.80;99.90
23703;DHT22;12030;50.376;8.762;2023-02-01T17:07:35;6.80;99.90
23703;DHT22;12030;50.376;8.762;2023-02-01T17:10:03;6.90;99.90
23703;DHT22;12030;50.376;8.762;2023-02-01T17:12:32;6.80;99.90
23703;DHT22;12030;50.376;8.762;2023-02-01T17:14:59;6.90;99.90
23703;DHT22;12030;50.376;8.762;2023-02-01T17:17:32;7.00;99.90
23703;DHT22;12030;50.376;8.762;2023-02-01T17:19:58;6.90;99.90
23703;DHT22;12030;50.376;8.762;2023-02-01T17:22:24;6.90;99.90
23703;DHT22;12030;50.376;8.762;2023-02-01T17:24:50;6.90;99.90
23703;DHT22;12030;50.376;8.762;2023-02-01T17:27:16;6.90;99.90
23703;DHT22;12030;50.376;8.762;2023-02-01T17:29:42;6.90;99.90
23703;DHT22;12030;50.376;8.762;2023-02-01T17:32:28;6.90;99.90
23703;DHT22;12030;50.376;8.762;2023-02-01T17:34:54;6.90;99.90
23703;DHT22;12030;50.376;8.762;2023-02-01T17:37:26;6.90;99.90
23703;DHT22;12030;50.376;8.762;2023-02-01T17:39:51;6.90;99.90
23703;DHT22;12030;50.376;8.762;2023-02-01T17:42:20;6.90;99.90